sensor_id;sensor_type;location;lat;lon;timestamp;temperature;humidity
4324;DHT22;2175;51.018;6.994;2023-02-28T00:00:28;0.60;1.00
4324;DHT22;2175;51.018;6.994;2023-02-28T00:02:54;0.60;1.00
4324;DHT22;2175;51.018;6.994;2023-02-28T00:05:23;0.60;1.00
4324;DHT22;2175;51.018;6.994;2023-02-28T00:07:49;0.60;1.00
4324;DHT22;2175;51.018;6.994;2023-02-28T00:10:22;0.60;1.00
4324;DHT22;2175;51.018;6.994;2023-02-28T00:12:52;0.60;1.00
4324;DHT22;2175;51.018;6.994;2023-02-28T00:15:18;0.40;2.70
4324;DHT22;2175;51.018;6.994;2023-02-28T00:17:44;0.40;20.80
4324;DHT22;2175;51.018;6.994;2023-02-28T00:20:10;0.30;42.40
4324;DHT22;2175;51.018;6.994;2023-02-28T00:22:42;0.30;46.60
4324;DHT22;2175;51.018;6.994;2023-02-28T00:25:13;0.30;69.90
4324;DHT22;2175;51.018;6.994;2023-02-28T00:27:40;0.20;50.40
4324;DHT22;2175;51.018;6.994;2023-02-28T00:30:07;0.20;32.30
4324;DHT22;2175;51.018;6.994;2023-02-28T00:32:34;0.30;8.40
4324;DHT22;2175;51.018;6.994;2023-02-28T00:35:01;0.30;1.00
4324;DHT22;2175;51.018;6.994;2023-02-28T00:37:27;0.30;1.50
4324;DHT22;2175;51.018;6.994;2023-02-28T00:39:53;0.40;1.00
4324;DHT22;2175;51.018;6.994;2023-02-28T00:42:18;0.40;1.00
4324;DHT22;2175;51.018;6.994;2023-02-28T00:44:44;0.40;1.00
4324;DHT22;2175;51.018;6.994;2023-02-28T00:47:10;0.50;1.00
4324;DHT22;2175;51.018;6.994;2023-02-28T00:49:35;0.50;1.00
4324;DHT22;2175;51.018;6.994;2023-02-28T00:52:01;0.50;1.00
4324;DHT22;2175;51.018;6.994;2023-02-28T00:54:27;0.50;1.00
4324;DHT22;2175;51.018;6.994;2023-02-28T00:56:52;0.50;1.00
4324;DHT22;2175;51.018;6.994;2023-02-28T00:59:18;0.50;1.00
4324;DHT22;2175;51.018;6.994;2023-02-28T01:01:45;0.50;1.00
4324;DHT22;2175;51.018;6.994;2023-02-28T01:04:12;0.50;1.00
4324;DHT22;2175;51.018;6.994;2023-02-28T01:06:38;0.40;1.00
4324;DHT22;2175;51.018;6.994;2023-02-28T01:09:05;0.40;1.00
4324;DHT22;2175;51.018;6.994;2023-02-28T01:11:31;0.40;1.00
4324;DHT22;2175;51.018;6.994;2023-02-28T01:13:57;0.50;1.00
4324;DHT22;2175;51.018;6.994;2023-02-28T01:16:23;0.50;1.00
4324;DHT22;2175;51.018;6.994;2023-02-28T01:18:49;0.40;1.00
4324;DHT22;2175;51.018;6.994;2023-02-28T01:21:19;0.40;1.00
4324;DHT22;2175;51.018;6.994;2023-02-28T01:23:46;0.40;1.00
4324;DHT22;2175;51.018;6.994;2023-02-28T01:28:42;0.40;1.00
4324;DHT22;2175;51.018;6.994;2023-02-28T01:31:09;0.30;1.00
4324;DHT22;2175;51.018;6.994;2023-02-28T01:33:35;0.30;1.00
4324;DHT22;2175;51.018;6.994;2023-02-28T01:36:11;0.30;1.00
4324;DHT22;2175;51.018;6.994;2023-02-28T01:38:36;0.30;1.00
4324;DHT22;2175;51.018;6.994;2023-02-28T01:41:03;0.30;1.00
4324;DHT22;2175;51.018;6.994;2023-02-28T01:43:35;0.30;1.00
4324;DHT22;2175;51.018;6.994;2023-02-28T01:46:16;0.30;1.00
4324;DHT22;2175;51.018;6.994;2023-02-28T01:48:52;0.30;1.00
4324;DHT22;2175;51.018;6.994;2023-02-28T01:51:34;0.30;1.00
4324;DHT22;2175;51.018;6.994;2023-02-28T01:54:07;0.30;1.00
4324;DHT22;2175;51.018;6.994;2023-02-28T01:57:27;0.30;1.00
4324;DHT22;2175;51.018;6.994;2023-02-28T02:02:04;0.20;1.00
4324;DHT22;2175;51.018;6.994;2023-02-28T02:04:39;0.20;1.00
4324;DHT22;2175;51.018;6.994;2023-02-28T02:07:06;0.20;1.00
4324;DHT22;2175;51.018;6.994;2023-02-28T02:09:33;0.20;1.00
4324;DHT22;2175;51.018;6.994;2023-02-28T02:12:01;0.20;1.00
4324;DHT22;2175;51.018;6.994;2023-02-28T02:14:40;0.20;1.00
4324;DHT22;2175;51.018;6.994;2023-02-28T02:17:44;0.20;24.00
4324;DHT22;2175;51.018;6.994;2023-02-28T02:26:10;0.00;19.70
4324;DHT22;2175;51.018;6.994;2023-02-28T02:31:57;-0.10;45.80
4324;DHT22;2175;51.018;6.994;2023-02-28T02:34:49;-0.20;27.00
4324;DHT22;2175;51.018;6.994;2023-02-28T02:37:35;-0.20;53.40
4324;DHT22;2175;51.018;6.994;2023-02-28T02:40:10;0.00;1.00
4324;DHT22;2175;51.018;6.994;2023-02-28T02:42:55;0.20;1.00
4324;DHT22;2175;51.018;6.994;2023-02-28T02:48:11;0.30;1.00
4324;DHT22;2175;51.018;6.994;2023-02-28T02:50:51;0.20;1.00
4324;DHT22;2175;51.018;6.994;2023-02-28T02:53:22;0.20;1.00
4324;DHT22;2175;51.018;6.994;2023-02-28T02:55:51;0.20;1.00
4324;DHT22;2175;51.018;6.994;2023-02-28T02:58:24;0.20;1.00
4324;DHT22;2175;51.018;6.994;2023-02-28T03:00:53;0.20;1.00
4324;DHT22;2175;51.018;6.994;2023-02-28T03:03:21;0.10;1.00
4324;DHT22;2175;51.018;6.994;2023-02-28T03:05:55;0.00;1.00
4324;DHT22;2175;51.018;6.994;2023-02-28T03:08:22;-0.10;1.00
4324;DHT22;2175;51.018;6.994;2023-02-28T03:10:59;0.00;15.70
4324;DHT22;2175;51.018;6.994;2023-02-28T03:21:10;-0.10;5.50
4324;DHT22;2175;51.018;6.994;2023-02-28T03:26:22;-0.20;25.10
4324;DHT22;2175;51.018;6.994;2023-02-28T03:29:08;-0.30;22.00
4324;DHT22;2175;51.018;6.994;2023-02-28T03:32:05;-0.30;15.60
4324;DHT22;2175;51.018;6.994;2023-02-28T03:34:34;-0.30;7.90
4324;DHT22;2175;51.018;6.994;2023-02-28T03:37:05;-0.30;3.90
4324;DHT22;2175;51.018;6.994;2023-02-28T03:39:49;-0.30;4.10
4324;DHT22;2175;51.018;6.994;2023-02-28T03:42:23;-0.30;11.20
4324;DHT22;2175;51.018;6.994;2023-02-28T03:44:53;-0.40;10.50
4324;DHT22;2175;51.018;6.994;2023-02-28T03:47:21;-0.30;4.30
4324;DHT22;2175;51.018;6.994;2023-02-28T03:49:50;-0.30;23.10
4324;DHT22;2175;51.018;6.994;2023-02-28T03:52:20;-0.40;33.30
4324;DHT22;2175;51.018;6.994;2023-02-28T03:54:53;-0.40;54.60
4324;DHT22;2175;51.018;6.994;2023-02-28T03:57:40;-0.40;58.30
4324;DHT22;2175;51.018;6.994;2023-02-28T04:00:25;-0.40;74.00
4324;DHT22;2175;51.018;6.994;2023-02-28T04:02:54;-0.40;67.10
4324;DHT22;2175;51.018;6.994;2023-02-28T04:05:21;-0.40;59.90
4324;DHT22;2175;51.018;6.994;2023-02-28T04:07:47;-0.40;48.90
4324;DHT22;2175;51.018;6.994;2023-02-28T04:10:14;-0.50;32.60
4324;DHT22;2175;51.018;6.994;2023-02-28T04:12:40;-0.50;32.00
4324;DHT22;2175;51.018;6.994;2023-02-28T04:15:06;-0.50;38.30
4324;DHT22;2175;51.018;6.994;2023-02-28T04:17:32;-0.50;33.60
4324;DHT22;2175;51.018;6.994;2023-02-28T04:19:58;-0.60;36.80
4324;DHT22;2175;51.018;6.994;2023-02-28T04:22:23;-0.50;25.10
4324;DHT22;2175;51.018;6.994;2023-02-28T04:24:52;-0.50;15.70
4324;DHT22;2175;51.018;6.994;2023-02-28T04:27:20;-0.50;9.10
4324;DHT22;2175;51.018;6.994;2023-02-28T04:29:46;-0.50;3.80
4324;DHT22;2175;51.018;6.994;2023-02-28T04:32:12;-0.50;1.00
4324;DHT22;2175;51.018;6.994;2023-02-28T04:34:38;-0.40;1.70
4324;DHT22;2175;51.018;6.994;2023-02-28T04:37:04;-0.40;1.00
4324;DHT22;2175;51.018;6.994;2023-02-28T04:39:30;-0.30;1.00
4324;DHT22;2175;51.018;6.994;2023-02-28T04:41:55;-0.30;1.00
4324;DHT22;2175;51.018;6.994;2023-02-28T04:44:22;-0.30;1.00
4324;DHT22;2175;51.018;6.994;2023-02-28T04:46:48;-0.30;1.00
4324;DHT22;2175;51.018;6.994;2023-02-28T04:49:14;-0.30;1.00
4324;DHT22;2175;51.018;6.994;2023-02-28T04:51:40;-0.30;1.00
4324;DHT22;2175;51.018;6.994;2023-02-28T04:54:06;-0.30;1.00
4324;DHT22;2175;51.018;6.994;2023-02-28T04:56:32;-0.20;1.00
4324;DHT22;2175;51.018;6.994;2023-02-28T05:01:30;-0.20;1.00
4324;DHT22;2175;51.018;6.994;2023-02-28T05:03:58;-0.20;1.00
4324;DHT22;2175;51.018;6.994;2023-02-28T05:06:25;-0.20;1.00
4324;DHT22;2175;51.018;6.994;2023-02-28T05:08:52;-0.20;1.00
4324;DHT22;2175;51.018;6.994;2023-02-28T05:11:32;-0.20;1.00
4324;DHT22;2175;51.018;6.994;2023-02-28T05:14:07;-0.30;1.00
4324;DHT22;2175;51.018;6.994;2023-02-28T05:16:34;-0.30;1.00
4324;DHT22;2175;51.018;6.994;2023-02-28T05:19:00;-0.30;1.00
4324;DHT22;2175;51.018;6.994;2023-02-28T05:21:32;-0.30;1.00
4324;DHT22;2175;51.018;6.994;2023-02-28T05:24:01;-0.30;1.00
4324;DHT22;2175;51.018;6.994;2023-02-28T05:26:27;-0.30;1.00
4324;DHT22;2175;51.018;6.994;2023-02-28T05:28:53;-0.30;1.00
4324;DHT22;2175;51.018;6.994;2023-02-28T05:31:19;-0.30;1.00
4324;DHT22;2175;51.018;6.994;2023-02-28T05:33:45;-0.40;1.00
4324;DHT22;2175;51.018;6.994;2023-02-28T05:36:10;-0.30;1.00
4324;DHT22;2175;51.018;6.994;2023-02-28T05:38:36;-0.30;1.00
4324;DHT22;2175;51.018;6.994;2023-02-28T05:41:08;-0.30;1.00
4324;DHT22;2175;51.018;6.994;2023-02-28T05:43:34;-0.30;1.00
4324;DHT22;2175;51.018;6.994;2023-02-28T05:46:03;-0.20;1.00
4324;DHT22;2175;51.018;6.994;2023-02-28T05:48:29;-0.20;1.00
4324;DHT22;2175;51.018;6.994;2023-02-28T05:50:54;-0.20;1.00
4324;DHT22;2175;51.018;6.994;2023-02-28T05:53:22;-0.20;1.00
4324;DHT22;2175;51.018;6.994;2023-02-28T05:55:47;-0.20;1.00
4324;DHT22;2175;51.018;6.994;2023-02-28T05:58:13;-0.30;1.00
4324;DHT22;2175;51.018;6.994;2023-02-28T06:00:38;-0.20;1.00
4324;DHT22;2175;51.018;6.994;2023-02-28T06:03:04;-0.20;1.00
4324;DHT22;2175;51.018;6.994;2023-02-28T06:05:30;-0.20;1.00
4324;DHT22;2175;51.018;6.994;2023-02-28T06:07:55;-0.30;1.00
4324;DHT22;2175;51.018;6.994;2023-02-28T06:10:21;-0.30;1.00
4324;DHT22;2175;51.018;6.994;2023-02-28T06:12:46;-0.30;1.00
4324;DHT22;2175;51.018;6.994;2023-02-28T06:15:13;-0.30;1.00
4324;DHT22;2175;51.018;6.994;2023-02-28T06:17:40;-0.30;1.00
4324;DHT22;2175;51.018;6.994;2023-02-28T06:20:07;-0.30;1.00
4324;DHT22;2175;51.018;6.994;2023-02-28T06:22:34;-0.30;1.00
4324;DHT22;2175;51.018;6.994;2023-02-28T06:25:00;-0.30;1.00
4324;DHT22;2175;51.018;6.994;2023-02-28T06:27:26;-0.30;1.00
4324;DHT22;2175;51.018;6.994;2023-02-28T06:29:54;-0.20;1.00
4324;DHT22;2175;51.018;6.994;2023-02-28T06:32:20;-0.20;1.00
4324;DHT22;2175;51.018;6.994;2023-02-28T06:34:46;-0.30;1.00
4324;DHT22;2175;51.018;6.994;2023-02-28T06:37:11;-0.30;1.00
4324;DHT22;2175;51.018;6.994;2023-02-28T06:39:37;-0.30;1.00
4324;DHT22;2175;51.018;6.994;2023-02-28T06:42:03;-0.20;1.00
4324;DHT22;2175;51.018;6.994;2023-02-28T06:44:29;-0.20;1.00
4324;DHT22;2175;51.018;6.994;2023-02-28T06:47:01;-0.30;1.00
4324;DHT22;2175;51.018;6.994;2023-02-28T06:49:29;-0.20;1.00
4324;DHT22;2175;51.018;6.994;2023-02-28T06:51:54;-0.20;1.00
4324;DHT22;2175;51.018;6.994;2023-02-28T06:54:20;-0.20;1.00
4324;DHT22;2175;51.018;6.994;2023-02-28T06:56:46;-0.10;1.00
4324;DHT22;2175;51.018;6.994;2023-02-28T06:59:12;0.00;1.00
4324;DHT22;2175;51.018;6.994;2023-02-28T07:01:38;0.00;1.00
4324;DHT22;2175;51.018;6.994;2023-02-28T07:04:05;0.00;1.00
4324;DHT22;2175;51.018;6.994;2023-02-28T07:06:31;0.00;1.00
4324;DHT22;2175;51.018;6.994;2023-02-28T07:08:57;0.20;1.00
4324;DHT22;2175;51.018;6.994;2023-02-28T07:11:24;0.20;1.00
4324;DHT22;2175;51.018;6.994;2023-02-28T07:13:52;0.20;99.90
4324;DHT22;2175;51.018;6.994;2023-02-28T07:16:17;0.30;1.00
4324;DHT22;2175;51.018;6.994;2023-02-28T07:18:43;0.40;99.90
4324;DHT22;2175;51.018;6.994;2023-02-28T07:21:10;0.40;1.00
4324;DHT22;2175;51.018;6.994;2023-02-28T07:23:37;0.50;1.00
4324;DHT22;2175;51.018;6.994;2023-02-28T07:26:07;0.50;1.00
4324;DHT22;2175;51.018;6.994;2023-02-28T07:28:36;0.60;1.00
4324;DHT22;2175;51.018;6.994;2023-02-28T07:31:07;0.70;99.90
4324;DHT22;2175;51.018;6.994;2023-02-28T07:33:33;0.70;99.90
4324;DHT22;2175;51.018;6.994;2023-02-28T07:36:11;0.80;4.40
4324;DHT22;2175;51.018;6.994;2023-02-28T07:38:44;0.90;99.90
4324;DHT22;2175;51.018;6.994;2023-02-28T07:41:12;0.90;1.00
4324;DHT22;2175;51.018;6.994;2023-02-28T07:43:38;1.00;99.90
4324;DHT22;2175;51.018;6.994;2023-02-28T07:46:05;1.10;1.00
4324;DHT22;2175;51.018;6.994;2023-02-28T07:48:32;1.10;1.00
4324;DHT22;2175;51.018;6.994;2023-02-28T07:50:58;1.20;1.00
4324;DHT22;2175;51.018;6.994;2023-02-28T07:53:24;1.20;1.00
4324;DHT22;2175;51.018;6.994;2023-02-28T07:55:50;1.30;99.90
4324;DHT22;2175;51.018;6.994;2023-02-28T07:58:16;1.40;99.90
4324;DHT22;2175;51.018;6.994;2023-02-28T08:00:42;1.40;99.90
4324;DHT22;2175;51.018;6.994;2023-02-28T08:03:11;1.50;65.70
4324;DHT22;2175;51.018;6.994;2023-02-28T08:05:41;1.60;99.90
4324;DHT22;2175;51.018;6.994;2023-02-28T08:08:07;1.70;99.90
4324;DHT22;2175;51.018;6.994;2023-02-28T08:10:33;1.80;1.00
4324;DHT22;2175;51.018;6.994;2023-02-28T08:12:58;1.80;1.00
4324;DHT22;2175;51.018;6.994;2023-02-28T08:15:24;1.90;1.00
4324;DHT22;2175;51.018;6.994;2023-02-28T08:17:50;2.00;99.90
4324;DHT22;2175;51.018;6.994;2023-02-28T08:20:15;2.00;99.90
4324;DHT22;2175;51.018;6.994;2023-02-28T08:22:41;2.00;99.90
4324;DHT22;2175;51.018;6.994;2023-02-28T08:25:07;2.10;99.90
4324;DHT22;2175;51.018;6.994;2023-02-28T08:27:33;2.10;99.90
4324;DHT22;2175;51.018;6.994;2023-02-28T08:29:59;2.30;99.90
4324;DHT22;2175;51.018;6.994;2023-02-28T08:32:24;2.30;99.90
4324;DHT22;2175;51.018;6.994;2023-02-28T08:34:50;2.30;99.90
4324;DHT22;2175;51.018;6.994;2023-02-28T08:37:16;2.40;1.00
4324;DHT22;2175;51.018;6.994;2023-02-28T08:39:42;2.50;27.40
4324;DHT22;2175;51.018;6.994;2023-02-28T08:42:07;2.60;99.90
4324;DHT22;2175;51.018;6.994;2023-02-28T08:44:33;2.70;1.00
4324;DHT22;2175;51.018;6.994;2023-02-28T08:46:58;2.80;1.00
4324;DHT22;2175;51.018;6.994;2023-02-28T08:49:24;3.60;1.00
4324;DHT22;2175;51.018;6.994;2023-02-28T08:51:50;4.60;1.00
4324;DHT22;2175;51.018;6.994;2023-02-28T08:54:16;5.40;1.00
4324;DHT22;2175;51.018;6.994;2023-02-28T08:56:45;6.00;1.00
4324;DHT22;2175;51.018;6.994;2023-02-28T08:59:12;6.50;1.00
4324;DHT22;2175;51.018;6.994;2023-02-28T09:01:37;7.10;1.00
4324;DHT22;2175;51.018;6.994;2023-02-28T09:04:03;6.90;1.00
4324;DHT22;2175;51.018;6.994;2023-02-28T09:06:29;6.80;1.00
4324;DHT22;2175;51.018;6.994;2023-02-28T09:08:58;7.50;1.00
4324;DHT22;2175;51.018;6.994;2023-02-28T09:11:27;8.00;1.00
4324;DHT22;2175;51.018;6.994;2023-02-28T09:13:53;8.40;1.00
4324;DHT22;2175;51.018;6.994;2023-02-28T09:16:21;8.20;1.00
4324;DHT22;2175;51.018;6.994;2023-02-28T09:18:47;7.90;1.00
4324;DHT22;2175;51.018;6.994;2023-02-28T09:21:15;7.90;1.00
4324;DHT22;2175;51.018;6.994;2023-02-28T09:23:42;7.90;1.00
4324;DHT22;2175;51.018;6.994;2023-02-28T09:26:12;7.90;1.00
4324;DHT22;2175;51.018;6.994;2023-02-28T09:28:38;7.60;1.00
4324;DHT22;2175;51.018;6.994;2023-02-28T09:31:04;7.30;1.00
4324;DHT22;2175;51.018;6.994;2023-02-28T09:33:30;6.90;1.00
4324;DHT22;2175;51.018;6.994;2023-02-28T09:36:00;6.80;1.00
4324;DHT22;2175;51.018;6.994;2023-02-28T09:38:28;6.70;1.00
4324;DHT22;2175;51.018;6.994;2023-02-28T09:41:00;6.50;1.00
4324;DHT22;2175;51.018;6.994;2023-02-28T09:43:33;6.20;1.00
4324;DHT22;2175;51.018;6.994;2023-02-28T09:46:21;6.10;1.00
4324;DHT22;2175;51.018;6.994;2023-02-28T09:48:51;5.90;1.00
4324;DHT22;2175;51.018;6.994;2023-02-28T09:51:34;6.10;1.00
4324;DHT22;2175;51.018;6.994;2023-02-28T09:54:01;6.20;1.00
4324;DHT22;2175;51.018;6.994;2023-02-28T09:56:32;5.90;1.00
4324;DHT22;2175;51.018;6.994;2023-02-28T09:59:02;5.60;1.00
4324;DHT22;2175;51.018;6.994;2023-02-28T10:06:49;5.90;1.00
4324;DHT22;2175;51.018;6.994;2023-02-28T10:09:30;5.70;1.00
4324;DHT22;2175;51.018;6.994;2023-02-28T10:12:04;5.90;1.00
4324;DHT22;2175;51.018;6.994;2023-02-28T10:14:33;5.50;1.00
4324;DHT22;2175;51.018;6.994;2023-02-28T10:17:08;5.20;1.00
4324;DHT22;2175;51.018;6.994;2023-02-28T10:24:53;5.10;1.00
4324;DHT22;2175;51.018;6.994;2023-02-28T10:27:24;5.00;1.00
4324;DHT22;2175;51.018;6.994;2023-02-28T10:29:55;5.10;1.00
4324;DHT22;2175;51.018;6.994;2023-02-28T10:32:24;5.00;1.00
4324;DHT22;2175;51.018;6.994;2023-02-28T10:37:23;5.30;1.00
4324;DHT22;2175;51.018;6.994;2023-02-28T10:39:48;5.50;1.00
4324;DHT22;2175;51.018;6.994;2023-02-28T10:42:30;5.60;1.00
4324;DHT22;2175;51.018;6.994;2023-02-28T10:45:15;5.50;1.00
4324;DHT22;2175;51.018;6.994;2023-02-28T10:48:06;5.60;1.00
4324;DHT22;2175;51.018;6.994;2023-02-28T10:56:23;5.70;1.00
4324;DHT22;2175;51.018;6.994;2023-02-28T11:01:45;5.20;1.00
4324;DHT22;2175;51.018;6.994;2023-02-28T11:04:32;5.50;1.00
4324;DHT22;2175;51.018;6.994;2023-02-28T11:07:04;5.70;1.00
4324;DHT22;2175;51.018;6.994;2023-02-28T11:09:31;5.80;1.00
4324;DHT22;2175;51.018;6.994;2023-02-28T11:11:59;5.70;1.00
4324;DHT22;2175;51.018;6.994;2023-02-28T11:14:35;5.40;1.00
4324;DHT22;2175;51.018;6.994;2023-02-28T11:17:14;5.20;1.00
4324;DHT22;2175;51.018;6.994;2023-02-28T11:19:47;5.60;1.00
4324;DHT22;2175;51.018;6.994;2023-02-28T11:22:24;5.70;1.00
4324;DHT22;2175;51.018;6.994;2023-02-28T11:24:53;5.70;1.00
4324;DHT22;2175;51.018;6.994;2023-02-28T11:29:55;5.70;1.00
4324;DHT22;2175;51.018;6.994;2023-02-28T11:32:23;5.50;1.00
4324;DHT22;2175;51.018;6.994;2023-02-28T11:37:39;5.20;1.00
4324;DHT22;2175;51.018;6.994;2023-02-28T11:40:35;5.30;1.00
4324;DHT22;2175;51.018;6.994;2023-02-28T11:43:12;5.40;1.00
4324;DHT22;2175;51.018;6.994;2023-02-28T11:51:33;5.40;1.00
4324;DHT22;2175;51.018;6.994;2023-02-28T11:54:14;5.30;1.00
4324;DHT22;2175;51.018;6.994;2023-02-28T11:57:07;5.30;1.00
4324;DHT22;2175;51.018;6.994;2023-02-28T12:05:33;5.40;1.00
4324;DHT22;2175;51.018;6.994;2023-02-28T12:13:56;5.50;1.00
4324;DHT22;2175;51.018;6.994;2023-02-28T12:25:37;5.50;1.00
4324;DHT22;2175;51.018;6.994;2023-02-28T12:28:09;5.50;1.00
4324;DHT22;2175;51.018;6.994;2023-02-28T12:30:37;5.50;1.00
4324;DHT22;2175;51.018;6.994;2023-02-28T12:33:11;5.60;1.00
4324;DHT22;2175;51.018;6.994;2023-02-28T12:35:58;5.40;1.00
4324;DHT22;2175;51.018;6.994;2023-02-28T12:38:28;5.50;1.00
4324;DHT22;2175;51.018;6.994;2023-02-28T12:41:04;5.50;1.00
4324;DHT22;2175;51.018;6.994;2023-02-28T12:43:36;5.70;1.00
4324;DHT22;2175;51.018;6.994;2023-02-28T12:48:53;6.00;1.00
4324;DHT22;2175;51.018;6.994;2023-02-28T12:51:22;6.00;1.00
4324;DHT22;2175;51.018;6.994;2023-02-28T12:59:20;6.20;1.00
4324;DHT22;2175;51.018;6.994;2023-02-28T13:02:20;6.20;1.00
4324;DHT22;2175;51.018;6.994;2023-02-28T13:05:43;6.20;1.00
4324;DHT22;2175;51.018;6.994;2023-02-28T13:17:40;6.20;1.00
4324;DHT22;2175;51.018;6.994;2023-02-28T13:20:53;6.30;1.00
4324;DHT22;2175;51.018;6.994;2023-02-28T13:27:42;6.30;1.00
4324;DHT22;2175;51.018;6.994;2023-02-28T13:33:41;6.20;1.00
4324;DHT22;2175;51.018;6.994;2023-02-28T13:38:55;6.30;1.00
4324;DHT22;2175;51.018;6.994;2023-02-28T13:44:05;6.20;1.00
4324;DHT22;2175;51.018;6.994;2023-02-28T13:49:28;6.30;1.00
4324;DHT22;2175;51.018;6.994;2023-02-28T14:01:00;6.20;1.00
4324;DHT22;2175;51.018;6.994;2023-02-28T14:11:40;6.30;1.00
4324;DHT22;2175;51.018;6.994;2023-02-28T14:14:07;6.30;1.00
4324;DHT22;2175;51.018;6.994;2023-02-28T14:16:44;6.40;1.00
4324;DHT22;2175;51.018;6.994;2023-02-28T14:19:25;6.50;1.00
4324;DHT22;2175;51.018;6.994;2023-02-28T14:22:13;6.50;1.00
4324;DHT22;2175;51.018;6.994;2023-02-28T14:33:08;6.60;1.00
4324;DHT22;2175;51.018;6.994;2023-02-28T14:35:43;6.80;1.00
4324;DHT22;2175;51.018;6.994;2023-02-28T14:38:25;6.70;1.00
4324;DHT22;2175;51.018;6.994;2023-02-28T14:40:55;6.60;1.00
4324;DHT22;2175;51.018;6.994;2023-02-28T14:43:24;6.60;1.00
4324;DHT22;2175;51.018;6.994;2023-02-28T14:45:54;6.70;1.00
4324;DHT22;2175;51.018;6.994;2023-02-28T14:48:21;6.80;1.00
4324;DHT22;2175;51.018;6.994;2023-02-28T14:50:59;6.70;1.00
4324;DHT22;2175;51.018;6.994;2023-02-28T14:53:36;6.70;1.00
4324;DHT22;2175;51.018;6.994;2023-02-28T14:56:02;6.70;1.00
4324;DHT22;2175;51.018;6.994;2023-02-28T14:58:31;6.60;1.00
4324;DHT22;2175;51.018;6.994;2023-02-28T15:01:00;6.50;1.00
4324;DHT22;2175;51.018;6.994;2023-02-28T15:03:37;6.60;1.00
4324;DHT22;2175;51.018;6.994;2023-02-28T15:06:16;6.70;1.00
4324;DHT22;2175;51.018;6.994;2023-02-28T15:08:43;6.80;1.00
4324;DHT22;2175;51.018;6.994;2023-02-28T15:11:19;6.80;1.00
4324;DHT22;2175;51.018;6.994;2023-02-28T15:13:48;6.70;1.00
4324;DHT22;2175;51.018;6.994;2023-02-28T15:16:21;6.70;1.00
4324;DHT22;2175;51.018;6.994;2023-02-28T15:18:56;6.60;1.00
4324;DHT22;2175;51.018;6.994;2023-02-28T15:21:28;6.60;1.00
4324;DHT22;2175;51.018;6.994;2023-02-28T15:26:32;6.50;1.00
4324;DHT22;2175;51.018;6.994;2023-02-28T15:29:06;6.50;1.00
4324;DHT22;2175;51.018;6.994;2023-02-28T15:31:34;6.60;1.00
4324;DHT22;2175;51.018;6.994;2023-02-28T15:34:05;6.50;1.00
4324;DHT22;2175;51.018;6.994;2023-02-28T15:36:34;6.60;1.00
4324;DHT22;2175;51.018;6.994;2023-02-28T15:39:16;6.50;1.00
4324;DHT22;2175;51.018;6.994;2023-02-28T15:41:43;6.50;1.00
4324;DHT22;2175;51.018;6.994;2023-02-28T15:44:30;6.40;1.00
4324;DHT22;2175;51.018;6.994;2023-02-28T15:49:24;6.30;1.00
4324;DHT22;2175;51.018;6.994;2023-02-28T15:51:52;6.20;1.00
4324;DHT22;2175;51.018;6.994;2023-02-28T15:54:23;6.30;1.00
4324;DHT22;2175;51.018;6.994;2023-02-28T15:56:55;6.30;1.00
4324;DHT22;2175;51.018;6.994;2023-02-28T15:59:27;6.30;1.00
4324;DHT22;2175;51.018;6.994;2023-02-28T16:02:15;6.30;1.00
4324;DHT22;2175;51.018;6.994;2023-02-28T16:04:58;6.30;1.00
4324;DHT22;2175;51.018;6.994;2023-02-28T16:07:24;6.20;1.00
4324;DHT22;2175;51.018;6.994;2023-02-28T16:09:50;6.20;1.00
4324;DHT22;2175;51.018;6.994;2023-02-28T16:12:16;6.20;1.00
4324;DHT22;2175;51.018;6.994;2023-02-28T16:14:41;6.10;1.00
4324;DHT22;2175;51.018;6.994;2023-02-28T16:17:21;6.10;1.00
4324;DHT22;2175;51.018;6.994;2023-02-28T16:19:47;6.00;1.00
4324;DHT22;2175;51.018;6.994;2023-02-28T16:22:12;6.10;1.00
4324;DHT22;2175;51.018;6.994;2023-02-28T16:24:38;6.10;1.00
4324;DHT22;2175;51.018;6.994;2023-02-28T16:27:05;6.00;1.00
4324;DHT22;2175;51.018;6.994;2023-02-28T16:29:34;6.00;1.00
4324;DHT22;2175;51.018;6.994;2023-02-28T16:32:01;6.00;1.00
4324;DHT22;2175;51.018;6.994;2023-02-28T16:34:28;5.90;1.00
4324;DHT22;2175;51.018;6.994;2023-02-28T16:36:53;5.90;1.00
4324;DHT22;2175;51.018;6.994;2023-02-28T16:39:19;5.90;1.00
4324;DHT22;2175;51.018;6.994;2023-02-28T16:41:49;5.80;1.00
4324;DHT22;2175;51.018;6.994;2023-02-28T16:44:28;5.80;1.00
4324;DHT22;2175;51.018;6.994;2023-02-28T16:46:55;5.70;1.00
4324;DHT22;2175;51.018;6.994;2023-02-28T16:49:20;5.70;1.00
4324;DHT22;2175;51.018;6.994;2023-02-28T16:51:46;5.70;1.00
4324;DHT22;2175;51.018;6.994;2023-02-28T16:54:12;5.60;1.00
4324;DHT22;2175;51.018;6.994;2023-02-28T16:56:42;5.60;1.00
4324;DHT22;2175;51.018;6.994;2023-02-28T16:59:10;5.50;1.00
4324;DHT22;2175;51.018;6.994;2023-02-28T17:01:38;5.40;1.00
4324;DHT22;2175;51.018;6.994;2023-02-28T17:04:03;5.40;1.00
4324;DHT22;2175;51.018;6.994;2023-02-28T17:06:30;5.40;1.00
4324;DHT22;2175;51.018;6.994;2023-02-28T17:08:59;5.30;1.00
4324;DHT22;2175;51.018;6.994;2023-02-28T17:11:25;5.30;1.00
4324;DHT22;2175;51.018;6.994;2023-02-28T17:13:51;5.30;1.00
4324;DHT22;2175;51.018;6.994;2023-02-28T17:16:30;5.30;1.00
4324;DHT22;2175;51.018;6.994;2023-02-28T17:19:01;5.20;1.00
4324;DHT22;2175;51.018;6.994;2023-02-28T17:21:27;5.10;1.00
4324;DHT22;2175;51.018;6.994;2023-02-28T17:23:53;5.10;1.00
4324;DHT22;2175;51.018;6.994;2023-02-28T17:26:20;5.00;1.00
4324;DHT22;2175;51.018;6.994;2023-02-28T17:28:48;4.90;1.00
4324;DHT22;2175;51.018;6.994;2023-02-28T17:31:14;5.00;1.00
4324;DHT22;2175;51.018;6.994;2023-02-28T17:33:39;4.90;20.50
4324;DHT22;2175;51.018;6.994;2023-02-28T17:36:06;5.00;99.90
4324;DHT22;2175;51.018;6.994;2023-02-28T17:38:31;4.90;99.90
4324;DHT22;2175;51.018;6.994;2023-02-28T17:40:57;4.80;99.90
4324;DHT22;2175;51.018;6.994;2023-02-28T17:43:24;4.80;99.90
4324;DHT22;2175;51.018;6.994;2023-02-28T17:45:50;4.70;99.90
4324;DHT22;2175;51.018;6.994;2023-02-28T17:48:16;4.70;99.90
4324;DHT22;2175;51.018;6.994;2023-02-28T17:50:42;4.60;99.90
4324;DHT22;2175;51.018;6.994;2023-02-28T17:53:08;4.60;1.00
4324;DHT22;2175;51.018;6.994;2023-02-28T17:55:34;4.60;1.00
4324;DHT22;2175;51.018;6.994;2023-02-28T17:58:00;4.50;1.00
4324;DHT22;2175;51.018;6.994;2023-02-28T18:00:26;4.50;1.00
4324;DHT22;2175;51.018;6.994;2023-02-28T18:02:52;4.40;1.00
4324;DHT22;2175;51.018;6.994;2023-02-28T18:05:17;4.40;65.90
4324;DHT22;2175;51.018;6.994;2023-02-28T18:07:43;4.30;85.10
4324;DHT22;2175;51.018;6.994;2023-02-28T18:10:27;4.30;1.00
4324;DHT22;2175;51.018;6.994;2023-02-28T18:12:52;4.30;99.90
4324;DHT22;2175;51.018;6.994;2023-02-28T18:15:20;4.30;1.00
4324;DHT22;2175;51.018;6.994;2023-02-28T18:17:47;4.20;99.90
4324;DHT22;2175;51.018;6.994;2023-02-28T18:20:13;4.10;1.00
4324;DHT22;2175;51.018;6.994;2023-02-28T18:22:40;4.00;99.90
4324;DHT22;2175;51.018;6.994;2023-02-28T18:25:08;4.00;47.00
4324;DHT22;2175;51.018;6.994;2023-02-28T18:27:38;4.00;99.90
4324;DHT22;2175;51.018;6.994;2023-02-28T18:30:04;4.00;99.90
4324;DHT22;2175;51.018;6.994;2023-02-28T18:32:30;3.90;1.00
4324;DHT22;2175;51.018;6.994;2023-02-28T18:34:56;3.90;99.90
4324;DHT22;2175;51.018;6.994;2023-02-28T18:37:21;3.90;1.00
4324;DHT22;2175;51.018;6.994;2023-02-28T18:39:47;3.80;1.00
4324;DHT22;2175;51.018;6.994;2023-02-28T18:42:13;3.80;99.90
4324;DHT22;2175;51.018;6.994;2023-02-28T18:44:39;3.70;1.00
4324;DHT22;2175;51.018;6.994;2023-02-28T18:47:05;3.70;1.00
4324;DHT22;2175;51.018;6.994;2023-02-28T18:49:30;3.70;1.00
4324;DHT22;2175;51.018;6.994;2023-02-28T18:51:58;3.60;1.00
4324;DHT22;2175;51.018;6.994;2023-02-28T18:54:24;3.60;1.00
4324;DHT22;2175;51.018;6.994;2023-02-28T18:56:50;3.50;99.90
4324;DHT22;2175;51.018;6.994;2023-02-28T18:59:15;3.50;99.90
4324;DHT22;2175;51.018;6.994;2023-02-28T19:01:41;3.50;1.00
4324;DHT22;2175;51.018;6.994;2023-02-28T19:04:11;3.50;99.90
4324;DHT22;2175;51.018;6.994;2023-02-28T19:06:38;3.50;99.90
4324;DHT22;2175;51.018;6.994;2023-02-28T19:09:04;3.50;1.00
4324;DHT22;2175;51.018;6.994;2023-02-28T19:11:30;3.40;1.00